Time;durP1;ratioP1;P1;durP2;ratioP2;P2;SDS_P1;SDS_P2;PMS_P1;PMS_P2;Temp;Humidity;BMP_temperature;BMP_pressure;BME280_temperature;BME280_humidity;BME280_pressure;Samples;Min_cycle;Max_cycle;Signal;HPM_P1;HPM_P2
2022/10/01 00:01:16;;;;;;;3.40;1.60;;;;;;;8.15;57.52;100320.13;4909290;28;97798;-67
2022/10/01 00:03:42;;;;;;;3.33;1.48;;;;;;;8.18;57.11;100316.13;4906776;28;98109;-65
2022/10/01 00:06:19;;;;;;;3.78;1.55;;;;;;;8.20;56.67;100320.16;4915769;28;111233;-65
2022/10/01 00:08:48;;;;;;;3.30;1.33;;;;;;;8.22;57.25;100318.03;4929549;28;98785;-68
2022/10/01 00:11:17;;;;;;;3.58;1.40;;;;;;;8.27;57.33;100320.75;4920935;28;97598;-65
2022/10/01 00:13:44;;;;;;;3.63;1.38;;;;;;;8.27;57.33;100320.75;4898262;28;111016;-65
2022/10/01 00:16:14;;;;;;;3.22;1.30;;;;;;;8.29;57.39;100313.25;4900975;28;97613;-65
2022/10/01 00:18:41;;;;;;;2.83;1.15;;;;;;;8.30;57.03;100314.88;4919640;28;97856;-68
2022/10/01 00:21:15;;;;;;;3.30;1.30;;;;;;;8.31;57.15;100324.56;4919387;28;97784;-65
2022/10/01 00:23:41;;;;;;;3.40;1.30;;;;;;;8.33;56.97;100319.75;4913038;28;97905;-65
2022/10/01 00:26:22;;;;;;;4.10;1.23;;;;;;;8.31;56.58;100321.88;4911155;28;97750;-68
2022/10/01 00:28:53;;;;;;;2.85;1.23;;;;;;;8.31;57.17;100311.13;4926036;28;97571;-66
2022/10/01 00:31:19;;;;;;;3.88;1.50;;;;;;;8.31;57.52;100316.50;4887233;28;97683;-66
2022/10/01 00:33:45;;;;;;;3.13;1.20;;;;;;;8.31;57.20;100307.63;4896017;28;97668;-65
2022/10/01 00:36:12;;;;;;;2.30;1.23;;;;;;;8.30;57.17;100314.06;4901641;28;98186;-65
2022/10/01 00:38:39;;;;;;;2.88;1.08;;;;;;;8.29;57.45;100305.22;4905369;28;106559;-65
2022/10/01 00:41:06;;;;;;;1.67;0.90;;;;;;;8.31;57.19;100311.13;4899637;28;99544;-67
2022/10/01 00:43:36;;;;;;;2.42;0.95;;;;;;;8.30;57.47;100304.13;4897433;28;98190;-65
2022/10/01 00:46:24;;;;;;;3.08;1.23;;;;;;;8.28;56.90;100302.75;4904252;28;97467;-67
2022/10/01 00:49:02;;;;;;;2.85;0.88;;;;;;;8.27;56.76;100301.97;4928250;28;97655;-66
2022/10/01 00:51:34;;;;;;;2.40;0.93;;;;;;;8.29;57.22;100309.75;4910847;28;97774;-67
2022/10/01 00:54:32;;;;;;;2.27;1.07;;;;;;;8.25;56.85;100306.78;4905831;28;97746;-67
2022/10/01 00:56:59;;;;;;;2.33;0.82;;;;;;;8.27;57.51;100306.53;4903786;28;97687;-67
2022/10/01 00:59:26;;;;;;;2.30;1.13;;;;;;;8.26;57.43;100307.59;4895112;28;97322;-65
2022/10/01 01:01:52;;;;;;;2.58;0.90;;;;;;;8.24;57.59;100315.88;4899531;28;97635;-65
2022/10/01 01:04:18;;;;;;;2.28;0.98;;;;;;;8.23;57.76;100311.59;4918907;28;119922;-67
2022/10/01 01:06:56;;;;;;;2.13;0.73;;;;;;;8.23;57.31;100308.09;4907972;28;99912;-67
2022/10/01 01:09:34;;;;;;;1.65;0.80;;;;;;;8.23;57.80;100310.78;4916428;28;99035;-65
2022/10/01 01:12:46;;;;;;;3.33;0.90;;;;;;;8.22;58.02;100299.25;4919154;28;97861;-67
2022/10/01 01:15:47;;;;;;;1.92;0.85;;;;;;;8.25;57.48;100300.56;4917699;28;97609;-67
2022/10/01 01:18:53;;;;;;;2.22;0.82;;;;;;;8.26;57.68;100296.84;4938283;28;97724;-66
2022/10/01 01:21:32;;;;;;;1.70;0.73;;;;;;;8.28;58.20;100295.50;4912234;28;97737;-67
2022/10/01 01:24:20;;;;;;;3.20;1.23;;;;;;;8.30;58.35;100282.66;4908939;28;98032;-66
2022/10/01 01:27:19;;;;;;;4.50;0.73;;;;;;;8.31;57.64;100273.53;4893961;28;98418;-67
2022/10/01 01:30:08;;;;;;;1.98;0.90;;;;;;;8.35;57.93;100274.63;4926430;28;97877;-65
2022/10/01 01:32:52;;;;;;;2.55;0.93;;;;;;;8.36;58.12;100268.19;4935839;28;97649;-65
2022/10/01 01:35:43;;;;;;;2.15;1.02;;;;;;;8.37;57.85;100266.34;4947214;28;97499;-67
2022/10/01 01:38:13;;;;;;;3.05;0.88;;;;;;;8.41;58.41;100272.00;4920071;28;97749;-65
2022/10/01 01:40:42;;;;;;;2.55;1.13;;;;;;;8.45;58.15;100270.41;4902589;28;117325;-67
2022/10/01 01:43:16;;;;;;;1.77;0.77;;;;;;;8.42;58.73;100269.06;4935886;28;99148;-67
2022/10/01 01:45:42;;;;;;;2.15;1.00;;;;;;;8.47;58.63;100270.97;4910654;28;97309;-67
2022/10/01 01:48:08;;;;;;;4.35;1.10;;;;;;;8.49;58.11;100269.66;4901409;28;97821;-65
2022/10/01 01:50:54;;;;;;;2.63;1.00;;;;;;;8.50;58.46;100262.41;4897683;28;97945;-65
2022/10/01 01:53:22;;;;;;;4.25;0.90;;;;;;;8.50;58.20;100257.03;4901644;28;97581;-67
2022/10/01 01:55:49;;;;;;;1.95;0.98;;;;;;;8.51;58.93;100264.84;4907105;28;98045;-65
2022/10/01 01:58:19;;;;;;;4.38;1.08;;;;;;;8.52;58.69;100261.06;4898588;28;97999;-67
2022/10/01 02:00:51;;;;;;;3.13;0.77;;;;;;;8.51;58.68;100264.03;4933123;28;97814;-67
2022/10/01 02:03:20;;;;;;;1.48;0.70;;;;;;;8.49;58.81;100263.47;4925237;28;97744;-65
2022/10/01 02:05:58;;;;;;;2.20;0.88;;;;;;;8.50;58.54;100257.84;4861730;28;98550;-67
2022/10/01 02:08:53;;;;;;;3.85;1.48;;;;;;;8.48;58.21;100256.47;4889255;28;98324;-65
2022/10/01 02:11:29;;;;;;;2.08;0.80;;;;;;;8.49;58.53;100252.72;4903273;28;98218;-65
2022/10/01 02:14:43;;;;;;;4.18;1.20;;;;;;;8.50;58.98;100257.84;4893320;28;100436;-67
2022/10/01 02:17:34;;;;;;;1.67;0.80;;;;;;;8.48;58.42;100253.78;4928614;28;97951;-67
2022/10/01 02:20:25;;;;;;;3.58;0.90;;;;;;;8.48;58.83;100257.28;4910184;28;102158;-66
2022/10/01 02:22:58;;;;;;;2.47;0.98;;;;;;;8.48;58.89;100248.41;4926959;28;97786;-67
2022/10/01 02:25:26;;;;;;;2.83;0.73;;;;;;;8.48;59.14;100241.16;4919194;28;97800;-65
2022/10/01 02:28:06;;;;;;;1.95;0.85;;;;;;;8.50;59.27;100228.28;4903608;28;111220;-65
2022/10/01 02:30:36;;;;;;;2.42;1.10;;;;;;;8.53;59.59;100238.53;4913514;28;114965;-67
2022/10/01 02:33:05;;;;;;;2.97;1.00;;;;;;;8.52;59.02;100238.78;4888715;28;97862;-67
2022/10/01 02:35:32;;;;;;;2.13;1.02;;;;;;;8.56;58.68;100243.38;4878934;28;97857;-65
2022/10/01 02:38:00;;;;;;;2.53;1.02;;;;;;;8.57;59.11;100245.00;4891073;28;98251;-65
2022/10/01 02:40:27;;;;;;;2.80;0.85;;;;;;;8.56;59.80;100248.75;4911592;28;98035;-65
2022/10/01 02:43:06;;;;;;;2.20;0.90;;;;;;;8.57;59.23;100246.88;4900306;28;97766;-67
2022/10/01 02:45:33;;;;;;;2.25;0.82;;;;;;;8.55;59.35;100247.13;4922089;28;98872;-65
2022/10/01 02:48:02;;;;;;;3.45;0.90;;;;;;;8.54;58.71;100234.78;4939424;28;98007;-65
2022/10/01 02:50:58;;;;;;;3.00;0.75;;;;;;;8.51;59.20;100229.91;4912244;28;99458;-65
2022/10/01 02:53:29;;;;;;;2.83;1.00;;;;;;;8.50;58.53;100228.28;4908566;28;99307;-67
2022/10/01 02:55:58;;;;;;;4.18;0.98;;;;;;;8.47;59.09;100230.69;4901749;28;98557;-67
2022/10/01 02:58:24;;;;;;;2.20;0.80;;;;;;;8.45;58.97;100228.28;4913424;28;98011;-65
2022/10/01 03:00:53;;;;;;;2.10;0.90;;;;;;;8.45;58.96;100227.44;4901479;28;127034;-67
2022/10/01 03:03:21;;;;;;;3.20;1.00;;;;;;;8.44;59.15;100228.50;4941577;28;99702;-65
2022/10/01 03:05:47;;;;;;;1.80;0.70;;;;;;;8.43;59.18;100225.03;4938668;28;100515;-65
2022/10/01 03:08:13;;;;;;;2.88;0.95;;;;;;;8.41;59.18;100229.84;4904697;28;97927;-65
2022/10/01 03:10:39;;;;;;;2.03;0.90;;;;;;;8.41;59.25;100221.81;4921052;28;97923;-65
2022/10/01 03:13:06;;;;;;;2.50;0.88;;;;;;;8.39;59.19;100229.28;4907227;28;98109;-65
2022/10/01 03:15:32;;;;;;;4.03;1.05;;;;;;;8.37;59.30;100218.00;4919551;28;98914;-67
2022/10/01 03:17:58;;;;;;;2.15;0.70;;;;;;;8.36;59.62;100222.50;4905493;28;97411;-65
2022/10/01 03:20:28;;;;;;;1.85;1.00;;;;;;;8.34;59.62;100223.88;4920928;28;97791;-67
2022/10/01 03:22:55;;;;;;;3.63;1.10;;;;;;;8.32;59.18;100223.31;4898419;28;97766;-65
2022/10/01 03:25:23;;;;;;;2.60;1.10;;;;;;;8.32;59.24;100228.66;4919702;28;97603;-67
2022/10/01 03:27:50;;;;;;;1.73;0.73;;;;;;;8.32;59.16;100220.63;4939625;28;97780;-65
2022/10/01 03:30:17;;;;;;;2.08;0.88;;;;;;;8.31;59.27;100232.44;4921657;28;98381;-67
2022/10/01 03:32:43;;;;;;;2.75;0.73;;;;;;;8.30;59.26;100230.81;4922433;28;97639;-67
2022/10/01 03:35:10;;;;;;;2.35;0.85;;;;;;;8.28;59.13;100224.88;4920890;28;97670;-65
2022/10/01 03:37:36;;;;;;;2.10;0.90;;;;;;;8.27;59.27;100226.75;4908571;28;97814;-67
2022/10/01 03:40:04;;;;;;;1.52;0.57;;;;;;;8.25;59.50;100220.00;4915469;28;97733;-67
2022/10/01 03:42:30;;;;;;;2.08;0.85;;;;;;;8.22;59.82;100218.69;4920678;28;97595;-66
2022/10/01 03:44:57;;;;;;;2.03;0.75;;;;;;;8.22;59.50;100224.03;4903031;28;97838;-65
2022/10/01 03:47:25;;;;;;;2.65;0.90;;;;;;;8.21;59.66;100219.72;4901408;28;111466;-67
2022/10/01 03:49:51;;;;;;;2.20;0.80;;;;;;;8.20;59.73;100220.78;4898147;28;97982;-67
2022/10/01 03:52:17;;;;;;;1.42;0.80;;;;;;;8.20;59.80;100220.00;4912207;28;99716;-67
2022/10/01 03:54:44;;;;;;;3.60;0.90;;;;;;;8.18;59.66;100220.25;4923463;28;97393;-67
2022/10/01 03:57:10;;;;;;;4.30;1.02;;;;;;;8.19;60.16;100216.50;4926946;28;98941;-65
2022/10/01 03:59:37;;;;;;;2.83;1.20;;;;;;;8.19;59.65;100213.00;4890211;28;98044;-65
2022/10/01 04:02:03;;;;;;;2.78;1.05;;;;;;;8.19;59.86;100208.44;4903986;28;97911;-65
2022/10/01 04:04:29;;;;;;;2.28;0.85;;;;;;;8.17;60.35;100209.75;4905413;28;97574;-65
2022/10/01 04:06:57;;;;;;;2.95;1.08;;;;;;;8.20;60.31;100201.19;4910052;28;97049;-67
2022/10/01 04:09:24;;;;;;;2.67;1.10;;;;;;;8.19;60.13;100203.06;4933870;28;97670;-65
2022/10/01 04:11:50;;;;;;;1.38;0.50;;;;;;;8.21;59.88;100202.81;4892758;28;108061;-65
2022/10/01 04:14:17;;;;;;;1.98;0.80;;;;;;;8.22;60.22;100197.19;4922904;28;97755;-67
2022/10/01 04:16:44;;;;;;;2.00;0.70;;;;;;;8.23;60.51;100198.00;4946309;28;97242;-67
2022/10/01 04:19:10;;;;;;;2.10;1.00;;;;;;;8.22;60.47;100189.13;4941167;28;97750;-66
2022/10/01 04:21:40;;;;;;;2.03;0.75;;;;;;;8.24;60.16;100194.25;4902726;28;98143;-67
2022/10/01 04:24:09;;;;;;;2.03;0.80;;;;;;;8.24;60.39;100191.56;4926059;28;97951;-67
2022/10/01 04:26:35;;;;;;;1.60;0.63;;;;;;;8.26;60.08;100189.44;4921462;28;98056;-65
2022/10/01 04:29:01;;;;;;;2.13;0.65;;;;;;;8.26;60.31;100186.75;4932430;28;98079;-65
2022/10/01 04:31:33;;;;;;;2.95;0.80;;;;;;;8.28;60.41;100181.91;4912810;28;97664;-65
2022/10/01 04:34:02;;;;;;;2.05;0.80;;;;;;;8.30;60.09;100190.53;4904372;28;97631;-67
2022/10/01 04:36:28;;;;;;;2.80;1.20;;;;;;;8.30;60.21;100191.34;4911473;28;98262;-65
2022/10/01 04:38:55;;;;;;;3.40;0.93;;;;;;;8.32;60.47;100183.81;4905949;28;97867;-65
2022/10/01 04:41:21;;;;;;;3.85;0.82;;;;;;;8.33;60.21;100190.81;4903482;28;99896;-65
2022/10/01 04:43:48;;;;;;;2.17;0.90;;;;;;;8.34;60.39;100180.88;4913915;28;99497;-65
2022/10/01 04:46:15;;;;;;;2.72;0.75;;;;;;;8.34;60.58;100176.31;4934324;28;97658;-68
2022/10/01 04:48:42;;;;;;;3.45;1.10;;;;;;;8.36;60.37;100179.53;4908707;28;97704;-65
2022/10/01 04:51:08;;;;;;;2.58;0.90;;;;;;;8.37;60.40;100180.41;4897350;28;97869;-65
2022/10/01 04:53:34;;;;;;;2.28;1.10;;;;;;;8.39;60.63;100175.56;4888647;28;97252;-67
2022/10/01 04:56:01;;;;;;;3.85;0.88;;;;;;;8.40;60.28;100168.31;4926938;28;97475;-66
2022/10/01 04:58:27;;;;;;;2.13;0.90;;;;;;;8.42;60.43;100175.06;4912615;28;116839;-65
2022/10/01 05:00:53;;;;;;;3.58;1.33;;;;;;;8.46;60.58;100172.66;4920523;28;108840;-65
2022/10/01 05:03:20;;;;;;;3.53;1.10;;;;;;;8.49;60.40;100172.13;4943777;28;97599;-65
2022/10/01 05:05:48;;;;;;;1.50;0.65;;;;;;;8.51;60.20;100168.13;4937621;28;97673;-67
2022/10/01 05:08:15;;;;;;;3.28;1.40;;;;;;;8.55;60.52;100163.84;4919836;28;127549;-68
2022/10/01 05:10:41;;;;;;;2.13;1.10;;;;;;;8.56;60.09;100167.31;4930656;28;97942;-65
2022/10/01 05:13:07;;;;;;;3.40;0.98;;;;;;;8.56;60.17;100170.81;4923782;28;98057;-67
2022/10/01 05:15:34;;;;;;;4.65;1.35;;;;;;;8.58;61.10;100167.91;4918860;28;97597;-65
2022/10/01 05:18:04;;;;;;;2.08;1.05;;;;;;;8.59;60.45;100169.50;4920620;28;97876;-67
2022/10/01 05:20:32;;;;;;;3.33;1.27;;;;;;;8.63;60.75;100156.34;4930289;28;97728;-65
2022/10/01 05:22:59;;;;;;;2.33;1.02;;;;;;;8.62;60.69;100158.25;4923279;28;98537;-67
2022/10/01 05:25:26;;;;;;;2.97;1.17;;;;;;;8.67;60.46;100157.44;4929086;28;97680;-67
2022/10/01 05:28:07;;;;;;;3.22;1.23;;;;;;;8.71;60.55;100162.03;4911643;28;97543;-66
2022/10/01 05:30:35;;;;;;;;;;;;;;;8.71;59.36;100156.66;4923660;28;98446;-65
2022/10/01 05:33:04;;;;;;;3.88;1.35;;;;;;;8.79;60.47;100158.03;4938190;28;97801;-67
2022/10/01 05:35:30;;;;;;;3.75;1.60;;;;;;;8.83;60.51;100148.38;4908898;28;97749;-65
2022/10/01 05:37:58;;;;;;;3.30;1.30;;;;;;;8.91;60.15;100141.69;4904389;28;98104;-65
2022/10/01 05:40:26;;;;;;;3.22;1.25;;;;;;;9.00;60.13;100153.53;4925602;28;98048;-68
2022/10/01 05:42:58;;;;;;;3.22;1.48;;;;;;;9.10;60.45;100148.19;4931473;28;97467;-67
2022/10/01 05:45:29;;;;;;;4.45;1.77;;;;;;;9.18;60.45;100153.06;4907905;28;97540;-68
2022/10/01 05:48:04;;;;;;;3.65;1.77;;;;;;;9.27;59.95;100146.06;4908701;28;99819;-67
2022/10/01 05:50:33;;;;;;;3.60;1.48;;;;;;;9.36;60.08;100148.28;4902288;28;99524;-65
2022/10/01 05:53:00;;;;;;;2.85;1.25;;;;;;;9.46;60.65;100148.25;4906828;28;97734;-65
2022/10/01 05:55:30;;;;;;;3.22;1.10;;;;;;;9.58;59.54;100152.31;4902306;28;97740;-65
2022/10/01 05:58:02;;;;;;;2.85;1.50;;;;;;;9.71;59.81;100151.00;4897456;28;98316;-68
2022/10/01 06:00:30;;;;;;;;;;;;;;;9.81;59.02;100148.28;4918552;28;98247;-68
2022/10/01 06:02:57;;;;;;;2.92;1.27;;;;;;;9.89;59.28;100138.06;4924476;28;98072;-68
2022/10/01 06:05:25;;;;;;;3.38;1.67;;;;;;;9.94;59.42;100141.56;4948281;28;98138;-68
2022/10/01 06:07:52;;;;;;;3.13;1.52;;;;;;;9.99;59.81;100135.38;4906732;28;97864;-68
2022/10/01 06:10:20;;;;;;;4.50;1.75;;;;;;;10.01;59.72;100128.59;4937392;28;98323;-68
2022/10/01 06:12:48;;;;;;;2.40;1.08;;;;;;;10.07;59.85;100118.66;4903295;28;98015;-68
2022/10/01 06:15:16;;;;;;;3.55;1.42;;;;;;;10.11;59.64;100111.63;4909978;28;98521;-68
2022/10/01 06:17:44;;;;;;;4.72;1.05;;;;;;;10.15;59.66;100111.91;4936965;28;98344;-68
2022/10/01 06:20:18;;;;;;;2.70;1.20;;;;;;;10.18;59.96;100105.94;4926472;28;97959;-68
2022/10/01 06:22:54;;;;;;;3.35;1.10;;;;;;;10.21;59.59;100100.81;4927931;28;97879;-68
2022/10/01 06:25:21;;;;;;;2.67;0.88;;;;;;;10.23;59.97;100103.25;4918874;28;98114;-68
2022/10/01 06:27:55;;;;;;;2.65;1.20;;;;;;;10.26;59.53;100089.28;4935723;28;98071;-68
2022/10/01 06:30:26;;;;;;;3.00;1.02;;;;;;;10.28;59.89;100089.81;4924064;28;98385;-68
2022/10/01 06:33:04;;;;;;;2.05;1.10;;;;;;;10.35;59.48;100081.44;4905293;28;97930;-68
2022/10/01 06:35:39;;;;;;;2.33;1.02;;;;;;;10.45;58.89;100084.09;4907682;28;97664;-68
2022/10/01 06:38:08;;;;;;;2.30;1.08;;;;;;;10.56;59.56;100082.97;4927918;28;98059;-68
2022/10/01 06:40:34;;;;;;;2.35;0.80;;;;;;;10.65;59.11;100083.19;4927994;28;99575;-65
2022/10/01 06:43:00;;;;;;;3.28;0.98;;;;;;;10.76;59.30;100084.75;4900029;28;100725;-65
2022/10/01 06:45:30;;;;;;;2.65;1.33;;;;;;;10.82;58.65;100076.38;4935142;28;97758;-65
2022/10/01 06:48:01;;;;;;;2.25;0.95;;;;;;;10.93;58.73;100073.63;4907448;28;99924;-68
2022/10/01 06:50:28;;;;;;;3.30;1.10;;;;;;;11.05;58.53;100076.78;4930343;28;99390;-66
2022/10/01 06:52:58;;;;;;;5.30;1.48;;;;;;;11.17;58.35;100063.75;4920959;28;97597;-68
2022/10/01 06:55:30;;;;;;;2.38;1.20;;;;;;;11.27;58.28;100062.84;4931610;28;98135;-65
2022/10/01 06:58:01;;;;;;;2.20;1.17;;;;;;;11.36;58.08;100068.47;4912344;28;98283;-65
2022/10/01 07:00:29;;;;;;;1.90;0.98;;;;;;;11.48;58.44;100058.13;4907677;28;98481;-68
2022/10/01 07:02:56;;;;;;;2.00;0.98;;;;;;;11.59;57.93;100058.81;4898675;28;100494;-65
2022/10/01 07:05:24;;;;;;;2.13;1.27;;;;;;;11.66;57.99;100052.00;4917474;28;97630;-67
2022/10/01 07:07:50;;;;;;;1.77;0.90;;;;;;;11.76;57.64;100048.41;4903157;28;97742;-68
2022/10/01 07:10:19;;;;;;;2.10;0.95;;;;;;;11.84;57.75;100045.13;4892127;28;100309;-67
2022/10/01 07:12:48;;;;;;;2.75;0.88;;;;;;;11.97;57.60;100039.03;4907791;28;98282;-67
2022/10/01 07:15:15;;;;;;;2.38;1.10;;;;;;;12.05;57.48;100034.91;4920400;28;97923;-65
2022/10/01 07:17:49;;;;;;;2.47;1.05;;;;;;;12.10;57.26;100021.34;4896170;28;97690;-66
2022/10/01 07:20:17;;;;;;;1.67;0.82;;;;;;;12.11;57.59;100024.88;4904127;28;97763;-65
2022/10/01 07:22:48;;;;;;;3.55;1.05;;;;;;;12.08;57.88;100037.03;4897356;28;97553;-68
2022/10/01 07:25:14;;;;;;;1.75;1.00;;;;;;;12.06;57.77;100020.28;4929150;28;97981;-68
2022/10/01 07:27:41;;;;;;;1.67;0.98;;;;;;;12.09;57.49;100022.44;4916145;28;98054;-66
2022/10/01 07:30:08;;;;;;;2.05;0.63;;;;;;;12.12;57.47;100013.75;4913369;28;99583;-66
2022/10/01 07:32:34;;;;;;;1.58;0.82;;;;;;;12.17;57.49;100021.00;4900892;28;98090;-65
2022/10/01 07:35:01;;;;;;;1.80;0.70;;;;;;;12.16;57.36;100019.38;4907484;28;97617;-65
2022/10/01 07:37:28;;;;;;;1.85;0.82;;;;;;;12.15;57.37;100015.09;4918269;28;97896;-68
2022/10/01 07:39:58;;;;;;;3.53;0.80;;;;;;;12.14;57.66;100016.16;4901445;28;99076;-68
2022/10/01 07:42:26;;;;;;;7.22;3.67;;;;;;;12.11;57.50;100014.06;4926555;28;97811;-65
2022/10/01 07:44:52;;;;;;;6.18;3.03;;;;;;;12.10;57.71;100013.22;4918719;28;97823;-65
2022/10/01 07:47:18;;;;;;;2.80;1.08;;;;;;;12.09;57.58;100014.31;4901215;28;99939;-68
2022/10/01 07:49:44;;;;;;;1.70;0.52;;;;;;;12.10;58.02;100012.44;4919898;28;97875;-65
2022/10/01 07:52:13;;;;;;;1.45;0.90;;;;;;;12.11;57.62;100014.06;4918604;28;98356;-66
2022/10/01 07:54:42;;;;;;;3.83;1.08;;;;;;;12.11;57.54;100008.66;4917618;28;125116;-68
2022/10/01 07:57:09;;;;;;;2.55;0.65;;;;;;;12.14;57.72;100016.97;4934926;28;97789;-68
2022/10/01 07:59:37;;;;;;;2.90;1.30;;;;;;;12.20;57.53;100007.72;4900232;28;98076;-68
2022/10/01 08:02:04;;;;;;;2.35;0.90;;;;;;;12.28;57.32;100006.28;4940558;28;99297;-68
2022/10/01 08:07:15;;;;;;;3.65;1.55;;;;;;;12.40;57.15;100001.25;4939836;28;99887;-68
2022/10/01 08:09:42;;;;;;;4.38;1.38;;;;;;;12.40;57.07;99998.53;4931658;28;98408;-66
2022/10/01 08:12:08;;;;;;;2.30;0.77;;;;;;;12.41;57.26;99999.34;4916394;28;97855;-65
2022/10/01 08:14:34;;;;;;;2.55;1.13;;;;;;;12.42;57.12;99995.56;4936836;28;117029;-65
2022/10/01 08:17:01;;;;;;;2.17;0.90;;;;;;;12.43;57.16;99989.84;4920596;28;98115;-68
2022/10/01 08:19:30;;;;;;;2.70;1.10;;;;;;;12.42;57.08;99995.56;4912554;28;98461;-66
2022/10/01 08:21:56;;;;;;;1.85;1.10;;;;;;;12.38;57.36;99987.22;4898146;28;97513;-65
2022/10/01 08:24:23;;;;;;;2.45;0.73;;;;;;;12.37;57.19;99980.19;4928938;28;97637;-67
2022/10/01 08:26:54;;;;;;;2.22;1.05;;;;;;;12.38;57.10;99986.41;4911763;28;99303;-65
2022/10/01 08:29:22;;;;;;;3.88;1.35;;;;;;;12.43;57.00;99980.94;4932434;28;98061;-67
2022/10/01 08:31:49;;;;;;;3.88;1.50;;;;;;;12.49;57.00;99985.97;4899483;28;98082;-66
2022/10/01 08:34:15;;;;;;;5.40;1.38;;;;;;;12.59;56.89;99976.13;4916631;28;98013;-68
2022/10/01 08:36:43;;;;;;;3.25;1.25;;;;;;;12.71;56.85;99980.00;4930537;28;98481;-68
2022/10/01 08:39:12;;;;;;;4.20;1.58;;;;;;;12.76;56.69;99973.72;4914479;28;97734;-65
2022/10/01 08:42:23;;;;;;;1.85;1.20;;;;;;;12.77;56.69;99981.53;4908471;28;98410;-68
2022/10/01 08:44:50;;;;;;;3.25;1.10;;;;;;;12.79;56.41;99970.44;4946935;28;97654;-66
2022/10/01 08:47:33;;;;;;;2.10;0.93;;;;;;;12.81;56.70;99965.53;4898547;28;101969;-66
2022/10/01 08:50:36;;;;;;;1.60;0.75;;;;;;;12.87;56.54;99964.34;4931356;28;98756;-68
2022/10/01 08:53:05;;;;;;;1.80;0.80;;;;;;;12.98;56.24;99960.38;4926075;28;97634;-65
2022/10/01 08:55:35;;;;;;;2.47;0.90;;;;;;;13.11;56.25;99952.59;4889542;28;97710;-68
2022/10/01 08:58:06;;;;;;;0.90;0.40;;;;;;;13.25;55.76;99953.50;4935468;28;98223;-65
2022/10/01 09:00:34;;;;;;;0.95;0.40;;;;;;;13.39;55.95;99942.69;4924778;28;97640;-66
2022/10/01 09:03:05;;;;;;;0.75;0.38;;;;;;;13.50;55.59;99938.69;4906076;28;98318;-67
2022/10/01 09:06:02;;;;;;;1.98;0.38;;;;;;;13.60;55.42;99935.78;4922351;28;112241;-65
2022/10/01 09:08:56;;;;;;;1.48;0.60;;;;;;;13.75;55.47;99926.53;4914818;28;97783;-65
2022/10/01 09:12:12;;;;;;;1.33;0.60;;;;;;;13.90;55.30;99923.53;4931489;28;98528;-65
2022/10/01 09:14:59;;;;;;;1.85;0.55;;;;;;;14.07;54.79;99916.69;4950467;28;97953;-68
2022/10/01 09:17:42;;;;;;;1.15;0.40;;;;;;;14.28;54.69;99903.53;4922265;28;97889;-68
2022/10/01 09:20:35;;;;;;;1.17;0.50;;;;;;;14.65;54.14;99905.13;4941144;28;99555;-68
2022/10/01 09:23:18;;;;;;;1.58;0.40;;;;;;;15.17;53.32;99900.84;4914520;28;99762;-68
2022/10/01 09:25:50;;;;;;;;;;;;;;;15.77;52.55;99893.28;4924627;28;99243;-68
2022/10/01 09:28:20;;;;;;;2.78;0.43;;;;;;;16.20;52.20;99888.72;4915163;28;98176;-68
2022/10/01 09:31:05;;;;;;;0.75;0.30;;;;;;;16.75;51.58;99889.25;4045673;28;10000766;-68
2022/10/01 09:33:41;;;;;;;0.80;0.22;;;;;;;17.04;51.31;99888.53;4212650;28;10001181;-68
2022/10/01 09:36:38;;;;;;;1.05;0.30;;;;;;;16.79;51.99;99884.75;4028314;28;10000367;-69
2022/10/01 09:39:22;;;;;;;1.30;0.20;;;;;;;16.49;52.48;99884.56;4061698;28;10000513;-69
2022/10/01 09:41:48;;;;;;;0.60;0.20;;;;;;;16.38;52.48;99881.38;4043296;28;10000780;-69
2022/10/01 09:44:18;;;;;;;1.45;0.20;;;;;;;16.35;52.38;99870.34;4892514;28;98017;-69
2022/10/01 09:46:46;;;;;;;2.25;0.30;;;;;;;16.30;52.15;99863.13;4915162;28;97746;-69
2022/10/01 09:49:38;;;;;;;1.02;0.20;;;;;;;16.18;52.68;99852.88;4913651;28;97932;-66
2022/10/01 09:52:25;;;;;;;0.63;0.20;;;;;;;16.09;52.74;99865.69;4902932;28;105925;-66
2022/10/01 09:55:34;;;;;;;2.15;0.30;;;;;;;15.90;52.93;99865.97;4895948;28;97745;-66
2022/10/01 09:58:21;;;;;;;0.88;0.20;;;;;;;15.70;53.00;99856.50;4893516;28;98587;-66
2022/10/01 10:00:50;;;;;;;1.15;0.30;;;;;;;15.57;52.95;99862.03;4900784;28;97654;-66
2022/10/01 10:03:32;;;;;;;0.95;0.20;;;;;;;15.42;53.59;99850.47;4878611;28;97716;-69
2022/10/01 10:06:00;;;;;;;0.90;0.30;;;;;;;15.38;53.37;99854.13;4912853;28;97639;-66
2022/10/01 10:08:31;;;;;;;2.35;0.30;;;;;;;15.31;53.63;99843.72;4873670;28;97750;-65
2022/10/01 10:11:04;;;;;;;0.70;0.20;;;;;;;15.25;53.66;99845.00;4907175;28;99675;-65
2022/10/01 10:13:34;;;;;;;1.67;0.50;;;;;;;15.18;53.70;99850.88;4911729;28;97677;-70
2022/10/01 10:16:25;;;;;;;0.70;0.20;;;;;;;15.12;53.90;99846.66;4895626;28;98128;-66
2022/10/01 10:18:59;;;;;;;1.33;0.30;;;;;;;15.05;53.90;99840.91;4896135;28;100203;-68
2022/10/01 10:21:32;;;;;;;1.60;0.40;;;;;;;14.93;53.98;99821.66;4906130;28;97636;-65
2022/10/01 10:24:01;;;;;;;1.08;0.28;;;;;;;14.85;54.23;99815.09;4896705;28;97844;-66
2022/10/01 10:26:38;;;;;;;1.67;0.52;;;;;;;14.77;54.31;99809.63;4877758;28;97645;-68
2022/10/01 10:29:09;;;;;;;1.60;0.60;;;;;;;14.74;54.31;99813.78;4891075;28;98027;-67
2022/10/01 10:31:42;;;;;;;2.20;0.63;;;;;;;14.71;54.79;99812.47;4894893;28;97929;-65
2022/10/01 10:34:34;;;;;;;6.45;2.55;;;;;;;14.69;54.44;99820.09;4898494;28;97527;-66
2022/10/01 10:37:04;;;;;;;4.40;2.20;;;;;;;14.72;54.94;99813.28;4930560;28;97834;-65
2022/10/01 10:39:34;;;;;;;1.70;1.00;;;;;;;14.72;54.82;99815.97;4910446;28;97545;-66
2022/10/01 10:42:01;;;;;;;1.80;1.10;;;;;;;14.64;55.13;99816.72;4911610;28;97656;-66
2022/10/01 10:44:33;;;;;;;1.55;0.60;;;;;;;14.51;55.63;99814.91;4910643;28;97814;-65
2022/10/01 10:47:02;;;;;;;2.33;1.02;;;;;;;14.36;56.18;99819.53;4914776;28;97814;-66
2022/10/01 10:49:33;;;;;;;2.45;0.73;;;;;;;14.21;56.15;99834.25;4891944;28;97686;-68
2022/10/01 10:52:00;;;;;;;2.57;0.73;;;;;;;14.12;57.03;99836.09;4925343;28;97764;-66
2022/10/01 10:54:37;;;;;;;3.05;0.90;;;;;;;14.02;57.04;99835.53;4903039;28;105019;-66
2022/10/01 10:57:22;;;;;;;2.30;1.20;;;;;;;13.90;57.32;99844.19;4895810;28;97698;-68
2022/10/01 10:59:59;;;;;;;3.10;1.63;;;;;;;13.82;57.07;99853.03;4893881;28;100077;-66
2022/10/01 11:02:30;;;;;;;3.80;1.30;;;;;;;13.77;58.00;99850.44;4911268;28;99810;-65
2022/10/01 11:05:04;;;;;;;2.63;0.93;;;;;;;13.67;58.05;99857.63;4891323;28;97589;-68
2022/10/01 11:07:32;;;;;;;3.60;0.95;;;;;;;13.59;58.07;99861.06;4914291;28;97747;-67
2022/10/01 11:10:23;;;;;;;0.98;0.40;;;;;;;13.50;57.43;99857.47;4915605;28;97914;-67
2022/10/01 11:13:05;;;;;;;2.47;0.63;;;;;;;13.41;58.08;99854.66;4947952;28;97501;-68
2022/10/01 11:15:54;;;;;;;2.05;0.60;;;;;;;13.33;57.89;99851.84;4926798;28;99008;-67
2022/10/01 11:19:13;;;;;;;1.65;0.30;;;;;;;13.25;57.55;99851.44;4909712;28;98111;-66
2022/10/01 11:21:47;;;;;;;1.83;0.68;;;;;;;13.18;58.67;99856.41;4942505;28;97625;-67
2022/10/01 11:25:11;;;;;;;4.15;1.00;;;;;;;13.12;58.19;99852.19;4926797;28;99677;-65
2022/10/01 11:27:47;;;;;;;2.80;0.80;;;;;;;13.07;58.64;99851.47;4927866;28;98339;-68
2022/10/01 11:30:26;;;;;;;1.10;0.30;;;;;;;13.02;58.40;99852.38;4929016;28;97197;-65
2022/10/01 11:33:17;;;;;;;0.70;0.30;;;;;;;12.96;58.30;99850.84;4912812;28;98013;-68
2022/10/01 11:36:30;;;;;;;1.05;0.40;;;;;;;12.99;58.35;99850.25;4914522;28;97740;-67
2022/10/01 11:39:05;;;;;;;;;;;;;;;12.96;57.81;99848.94;4874248;28;98780;-67
2022/10/01 11:41:37;;;;;;;1.08;0.20;;;;;;;13.06;58.45;99847.19;4897982;28;97860;-65
2022/10/01 11:44:12;;;;;;;0.95;0.20;;;;;;;13.09;58.62;99836.56;4894220;28;98002;-68
2022/10/01 11:47:19;;;;;;;0.50;0.20;;;;;;;13.14;58.72;99835.66;4914527;28;98329;-67
2022/10/01 11:50:25;;;;;;;1.73;0.70;;;;;;;13.11;58.69;99838.97;4846039;28;97850;-66
2022/10/01 11:53:17;;;;;;;3.42;0.93;;;;;;;13.08;58.66;99840.34;4938482;28;97811;-65
2022/10/01 11:59:18;;;;;;;0.82;0.20;;;;;;;13.04;58.98;99839.34;4899875;28;97712;-65
2022/10/01 12:02:03;;;;;;;1.08;0.20;;;;;;;13.02;58.99;99836.16;4898594;28;98098;-68
2022/10/01 12:04:56;;;;;;;1.25;0.20;;;;;;;13.01;59.01;99834.56;4910830;28;98139;-67
2022/10/01 12:08:01;;;;;;;1.67;0.30;;;;;;;12.96;59.16;99830.00;4893756;28;98307;-65